sensor_id;sensor_type;location;lat;lon;timestamp;pressure;altitude;pressure_sealevel;temperature;humidity
56514;BME280;62152;52.078;8.414;2023-04-05T00:02:45;101013.22;;;18.35;50.93
56514;BME280;62152;52.078;8.414;2023-04-05T00:06:47;101006.94;;;18.34;50.51
56514;BME280;62152;52.078;8.414;2023-04-05T00:10:49;101008.53;;;18.35;50.56
56514;BME280;62152;52.078;8.414;2023-04-05T00:14:50;101010.47;;;18.35;50.85
56514;BME280;62152;52.078;8.414;2023-04-05T00:18:51;101007.75;;;18.35;51.00
56514;BME280;62152;52.078;8.414;2023-04-05T00:22:53;101014.03;;;18.35;51.32
56514;BME280;62152;52.078;8.414;2023-04-05T00:26:54;101002.25;;;18.35;51.35
56514;BME280;62152;52.078;8.414;2023-04-05T00:30:54;101000.66;;;18.34;51.33
56514;BME280;62152;52.078;8.414;2023-04-05T00:34:55;100999.06;;;18.33;50.64
56514;BME280;62152;52.078;8.414;2023-04-05T00:38:57;100997.44;;;18.31;50.68
56514;BME280;62152;52.078;8.414;2023-04-05T00:42:58;100998.22;;;18.32;50.89
56514;BME280;62152;52.078;8.414;2023-04-05T00:46:59;100989.66;;;18.34;51.13
56514;BME280;62152;52.078;8.414;2023-04-05T00:51:01;100981.75;;;18.32;51.47
56514;BME280;62152;52.078;8.414;2023-04-05T00:55:06;100985.31;;;18.33;51.21
56514;BME280;62152;52.078;8.414;2023-04-05T00:59:08;100982.56;;;18.33;51.10
56514;BME280;62152;52.078;8.414;2023-04-05T01:03:09;100976.25;;;18.32;51.55
56514;BME280;62152;52.078;8.414;2023-04-05T01:07:19;100977.09;;;18.33;50.82
56514;BME280;62152;52.078;8.414;2023-04-05T01:11:29;100977.88;;;18.33;50.96
56514;BME280;62152;52.078;8.414;2023-04-05T01:15:32;100978.22;;;18.31;51.04
56514;BME280;62152;52.078;8.414;2023-04-05T01:19:33;100977.88;;;18.33;51.30
56514;BME280;62152;52.078;8.414;2023-04-05T01:23:40;100976.25;;;18.32;51.05
56514;BME280;62152;52.078;8.414;2023-04-05T01:28:17;100971.91;;;18.31;50.84
56514;BME280;62152;52.078;8.414;2023-04-05T01:32:45;100968.38;;;18.30;50.91
56514;BME280;62152;52.078;8.414;2023-04-05T01:36:57;100963.69;;;18.31;51.17
56514;BME280;62152;52.078;8.414;2023-04-05T01:41:03;100973.88;;;18.30;51.40
56514;BME280;62152;52.078;8.414;2023-04-05T01:45:04;100958.19;;;18.31;51.76
56514;BME280;62152;52.078;8.414;2023-04-05T01:49:07;100956.59;;;18.30;51.28
56514;BME280;62152;52.078;8.414;2023-04-05T01:53:08;100951.91;;;18.30;51.56
56514;BME280;62152;52.078;8.414;2023-04-05T01:57:09;100935.41;;;18.30;51.50
56514;BME280;62152;52.078;8.414;2023-04-05T02:01:10;100942.88;;;18.30;51.35
56514;BME280;62152;52.078;8.414;2023-04-05T02:05:12;100947.56;;;18.29;51.28
56514;BME280;62152;52.078;8.414;2023-04-05T02:09:14;100948.34;;;18.30;51.08
56514;BME280;62152;52.078;8.414;2023-04-05T02:13:14;100945.59;;;18.30;51.16
56514;BME280;62152;52.078;8.414;2023-04-05T02:17:15;100944.81;;;18.29;51.20
56514;BME280;62152;52.078;8.414;2023-04-05T02:21:17;100944.81;;;18.29;51.55
56514;BME280;62152;52.078;8.414;2023-04-05T02:25:19;100940.81;;;18.27;51.60
56514;BME280;62152;52.078;8.414;2023-04-05T02:29:20;100944.00;;;18.29;51.15
56514;BME280;62152;52.078;8.414;2023-04-05T02:33:22;100941.63;;;18.27;51.08
56514;BME280;62152;52.078;8.414;2023-04-05T02:37:24;100932.59;;;18.27;51.85
56514;BME280;62152;52.078;8.414;2023-04-05T02:41:25;100937.72;;;18.28;51.24
56514;BME280;62152;52.078;8.414;2023-04-05T02:45:26;100940.47;;;18.28;51.73
56514;BME280;62152;52.078;8.414;2023-04-05T02:49:29;100933.03;;;18.29;51.40
56514;BME280;62152;52.078;8.414;2023-04-05T02:53:33;100928.25;;;18.26;51.25
56514;BME280;62152;52.078;8.414;2023-04-05T02:57:39;100930.63;;;18.27;51.29
56514;BME280;62152;52.078;8.414;2023-04-05T03:01:53;100930.63;;;18.27;51.50
56514;BME280;62152;52.078;8.414;2023-04-05T03:06:03;100924.34;;;18.27;51.53
56514;BME280;62152;52.078;8.414;2023-04-05T03:10:12;100923.56;;;18.26;51.65
56514;BME280;62152;52.078;8.414;2023-04-05T03:14:14;100920.00;;;18.26;51.63
56514;BME280;62152;52.078;8.414;2023-04-05T03:18:18;100919.22;;;18.25;51.59
56514;BME280;62152;52.078;8.414;2023-04-05T03:22:19;100917.25;;;18.26;51.73
56514;BME280;62152;52.078;8.414;2023-04-05T03:26:22;100917.25;;;18.26;51.80
56514;BME280;62152;52.078;8.414;2023-04-05T03:30:26;100918.06;;;18.26;51.35
56514;BME280;62152;52.078;8.414;2023-04-05T03:34:32;100910.16;;;18.25;51.28
56514;BME280;62152;52.078;8.414;2023-04-05T03:38:38;100915.63;;;18.25;51.62
56514;BME280;62152;52.078;8.414;2023-04-05T03:42:46;100909.34;;;18.24;51.73
56514;BME280;62152;52.078;8.414;2023-04-05T03:46:47;100910.97;;;18.25;51.70
56514;BME280;62152;52.078;8.414;2023-04-05T03:50:48;100909.34;;;18.24;51.82
56514;BME280;62152;52.078;8.414;2023-04-05T03:54:49;100903.06;;;18.24;51.76
56514;BME280;62152;52.078;8.414;2023-04-05T03:58:56;100904.66;;;18.25;51.99
56514;BME280;62152;52.078;8.414;2023-04-05T04:03:01;100906.59;;;18.24;51.37
56514;BME280;62152;52.078;8.414;2023-04-05T04:07:02;100894.03;;;18.23;51.29
56514;BME280;62152;52.078;8.414;2023-04-05T04:11:04;100895.63;;;18.24;52.17
56514;BME280;62152;52.078;8.414;2023-04-05T04:15:11;100891.28;;;18.23;51.60
56514;BME280;62152;52.078;8.414;2023-04-05T04:19:17;100887.75;;;18.23;52.19
56514;BME280;62152;52.078;8.414;2023-04-05T04:23:37;100892.44;;;18.22;52.08
56514;BME280;62152;52.078;8.414;2023-04-05T04:28:17;100899.16;;;18.25;51.93
56514;BME280;62152;52.078;8.414;2023-04-05T04:32:25;100895.19;;;18.22;51.51
56514;BME280;62152;52.078;8.414;2023-04-05T04:36:35;100901.47;;;18.23;51.73
56514;BME280;62152;52.078;8.414;2023-04-05T04:41:05;100903.88;;;18.24;52.24
56514;BME280;62152;52.078;8.414;2023-04-05T04:45:19;100899.16;;;18.25;52.02
56514;BME280;62152;52.078;8.414;2023-04-05T04:49:24;100895.97;;;18.23;52.00
56514;BME280;62152;52.078;8.414;2023-04-05T04:53:25;100903.88;;;18.24;51.65
56514;BME280;62152;52.078;8.414;2023-04-05T04:57:26;100903.41;;;18.22;52.02
56514;BME280;62152;52.078;8.414;2023-04-05T05:01:28;100902.28;;;18.23;52.26
56514;BME280;62152;52.078;8.414;2023-04-05T05:05:30;100898.72;;;18.23;51.92
56514;BME280;62152;52.078;8.414;2023-04-05T05:09:31;100913.59;;;18.22;51.85
56514;BME280;62152;52.078;8.414;2023-04-05T05:13:33;100914.41;;;18.22;51.74
56514;BME280;62152;52.078;8.414;2023-04-05T05:17:34;100906.97;;;18.23;51.84
56514;BME280;62152;52.078;8.414;2023-04-05T05:21:36;100910.97;;;18.25;51.72
56514;BME280;62152;52.078;8.414;2023-04-05T05:25:37;100905.50;;;18.25;51.57
56514;BME280;62152;52.078;8.414;2023-04-05T05:29:38;100910.97;;;18.25;51.65
56514;BME280;62152;52.078;8.414;2023-04-05T05:33:38;100902.75;;;18.25;52.08
56514;BME280;62152;52.078;8.414;2023-04-05T05:37:41;100899.16;;;18.25;51.97
56514;BME280;62152;52.078;8.414;2023-04-05T05:41:43;100902.28;;;18.23;51.71
56514;BME280;62152;52.078;8.414;2023-04-05T05:45:44;100908.91;;;18.22;51.40
56514;BME280;62152;52.078;8.414;2023-04-05T05:49:45;100905.00;;;18.23;51.57
56514;BME280;62152;52.078;8.414;2023-04-05T05:53:47;100904.22;;;18.23;51.33
56514;BME280;62152;52.078;8.414;2023-04-05T05:57:48;100906.16;;;18.22;51.79
56514;BME280;62152;52.078;8.414;2023-04-05T06:01:49;100909.28;;;18.21;51.20
56514;BME280;62152;52.078;8.414;2023-04-05T06:05:51;100902.19;;;18.20;51.51
56514;BME280;62152;52.078;8.414;2023-04-05T06:09:53;100906.88;;;18.19;50.79
56514;BME280;62152;52.078;8.414;2023-04-05T06:13:54;100903.34;;;18.19;50.53
56514;BME280;62152;52.078;8.414;2023-04-05T06:17:54;100899.75;;;18.18;51.15
56514;BME280;62152;52.078;8.414;2023-04-05T06:21:55;100907.22;;;18.18;50.71
56514;BME280;62152;52.078;8.414;2023-04-05T06:25:57;100899.75;;;18.18;50.74
56514;BME280;62152;52.078;8.414;2023-04-05T06:29:58;100913.50;;;18.18;50.66
56514;BME280;62152;52.078;8.414;2023-04-05T06:34:00;100909.94;;;18.18;50.44
56514;BME280;62152;52.078;8.414;2023-04-05T06:38:01;100911.91;;;18.17;49.94
56514;BME280;62152;52.078;8.414;2023-04-05T06:42:03;100908.34;;;18.17;49.84
56514;BME280;62152;52.078;8.414;2023-04-05T06:46:12;100906.75;;;18.16;49.86
56514;BME280;62152;52.078;8.414;2023-04-05T06:50:13;100900.38;;;18.12;49.13
56514;BME280;62152;52.078;8.414;2023-04-05T06:54:14;100899.84;;;18.06;49.07
56514;BME280;62152;52.078;8.414;2023-04-05T06:58:16;100900.06;;;18.01;48.99
56514;BME280;62152;52.078;8.414;2023-04-05T07:02:17;100897.22;;;17.97;48.90
56514;BME280;62152;52.078;8.414;2023-04-05T07:06:18;100903.06;;;17.96;48.44
56514;BME280;62152;52.078;8.414;2023-04-05T07:10:19;100892.88;;;17.96;48.23
56514;BME280;62152;52.078;8.414;2023-04-05T07:14:22;100880.75;;;17.97;48.49
56514;BME280;62152;52.078;8.414;2023-04-05T07:18:22;100877.00;;;17.90;45.32
56514;BME280;62152;52.078;8.414;2023-04-05T07:22:23;100876.88;;;17.98;46.64
56514;BME280;62152;52.078;8.414;2023-04-05T07:26:24;100877.53;;;18.08;46.74
56514;BME280;62152;52.078;8.414;2023-04-05T07:30:27;100881.50;;;18.10;47.20
56514;BME280;62152;52.078;8.414;2023-04-05T07:34:28;100883.88;;;18.12;46.81
56514;BME280;62152;52.078;8.414;2023-04-05T07:38:29;100884.25;;;18.10;47.50
56514;BME280;62152;52.078;8.414;2023-04-05T07:42:30;100883.09;;;18.11;46.78
56514;BME280;62152;52.078;8.414;2023-04-05T07:46:33;100880.03;;;18.13;47.46
56514;BME280;62152;52.078;8.414;2023-04-05T07:50:34;100875.34;;;18.13;47.47
56514;BME280;62152;52.078;8.414;2023-04-05T07:54:35;100881.25;;;18.15;47.75
56514;BME280;62152;52.078;8.414;2023-04-05T07:58:36;100880.09;;;18.16;47.39
56514;BME280;62152;52.078;8.414;2023-04-05T08:02:40;100885.59;;;18.16;48.05
56514;BME280;62152;52.078;8.414;2023-04-05T08:06:40;100882.84;;;18.16;47.99
56514;BME280;62152;52.078;8.414;2023-04-05T08:10:41;100873.81;;;18.16;48.32
56514;BME280;62152;52.078;8.414;2023-04-05T08:14:42;100877.81;;;18.18;47.98
56514;BME280;62152;52.078;8.414;2023-04-05T08:18:44;100876.22;;;18.17;47.70
56514;BME280;62152;52.078;8.414;2023-04-05T08:22:45;100877.38;;;18.16;47.64
56514;BME280;62152;52.078;8.414;2023-04-05T08:26:46;100878.97;;;18.17;47.62
56514;BME280;62152;52.078;8.414;2023-04-05T08:30:46;100875.41;;;18.17;48.22
56514;BME280;62152;52.078;8.414;2023-04-05T08:34:48;100862.47;;;18.17;47.65
56514;BME280;62152;52.078;8.414;2023-04-05T08:38:49;100862.84;;;18.16;48.33
56514;BME280;62152;52.078;8.414;2023-04-05T08:42:56;100865.22;;;18.17;47.50
56514;BME280;62152;52.078;8.414;2023-04-05T08:47:07;100857.00;;;18.17;47.99
56514;BME280;62152;52.078;8.414;2023-04-05T08:51:11;100869.56;;;18.18;47.55
56514;BME280;62152;52.078;8.414;2023-04-05T08:55:12;100858.25;;;18.20;48.06
56514;BME280;62152;52.078;8.414;2023-04-05T08:59:15;100873.13;;;18.19;47.98
56514;BME280;62152;52.078;8.414;2023-04-05T09:03:20;100868.44;;;18.19;47.77
56514;BME280;62152;52.078;8.414;2023-04-05T09:07:28;100865.69;;;18.19;48.05
56514;BME280;62152;52.078;8.414;2023-04-05T09:11:32;100861.31;;;18.18;47.84
56514;BME280;62152;52.078;8.414;2023-04-05T09:15:34;100862.94;;;18.19;48.29
56514;BME280;62152;52.078;8.414;2023-04-05T09:19:36;100863.75;;;18.20;47.67
56514;BME280;62152;52.078;8.414;2023-04-05T09:23:50;100851.19;;;18.19;47.73
56514;BME280;62152;52.078;8.414;2023-04-05T09:27:53;100846.47;;;18.19;47.98
56514;BME280;62152;52.078;8.414;2023-04-05T09:31:55;100841.00;;;18.19;47.82
56514;BME280;62152;52.078;8.414;2023-04-05T09:35:56;100839.84;;;18.20;47.90
56514;BME280;62152;52.078;8.414;2023-04-05T09:40:04;100842.56;;;18.20;48.03
56514;BME280;62152;52.078;8.414;2023-04-05T09:44:05;100836.28;;;18.20;48.51
56514;BME280;62152;52.078;8.414;2023-04-05T09:48:07;100834.69;;;18.19;48.41
56514;BME280;62152;52.078;8.414;2023-04-05T09:52:19;100830.81;;;18.20;48.05
56514;BME280;62152;52.078;8.414;2023-04-05T09:56:23;100828.50;;;18.22;48.00
56514;BME280;62152;52.078;8.414;2023-04-05T10:00:24;100831.59;;;18.20;48.43
56514;BME280;62152;52.078;8.414;2023-04-05T10:04:25;100825.63;;;18.18;47.59
56514;BME280;62152;52.078;8.414;2023-04-05T10:08:26;100827.16;;;18.16;47.18
56514;BME280;62152;52.078;8.414;2023-04-05T10:12:31;100824.75;;;18.14;45.38
56514;BME280;62152;52.078;8.414;2023-04-05T10:16:37;100814.66;;;18.18;45.20
56514;BME280;62152;52.078;8.414;2023-04-05T10:20:50;100807.25;;;18.19;45.52
56514;BME280;62152;52.078;8.414;2023-04-05T10:24:59;100801.41;;;18.20;45.81
56514;BME280;62152;52.078;8.414;2023-04-05T10:29:11;100809.63;;;18.20;46.10
56514;BME280;62152;52.078;8.414;2023-04-05T10:33:21;100808.47;;;18.21;45.86
56514;BME280;62152;52.078;8.414;2023-04-05T10:37:49;100807.31;;;18.22;46.13
56514;BME280;62152;52.078;8.414;2023-04-05T10:42:00;100808.66;;;18.28;46.68
56514;BME280;62152;52.078;8.414;2023-04-05T10:46:09;100805.00;;;18.24;45.94
56514;BME280;62152;52.078;8.414;2023-04-05T10:50:18;100800.00;;;18.26;44.63
56514;BME280;62152;52.078;8.414;2023-04-05T10:54:22;100800.06;;;17.86;43.89
56514;BME280;62152;52.078;8.414;2023-04-05T10:58:24;100797.94;;;17.80;42.03
56514;BME280;62152;52.078;8.414;2023-04-05T11:02:29;100790.16;;;17.97;40.91
56514;BME280;62152;52.078;8.414;2023-04-05T11:06:31;100783.38;;;18.07;40.79
56514;BME280;62152;52.078;8.414;2023-04-05T11:10:37;100785.97;;;18.16;42.94
56514;BME280;62152;52.078;8.414;2023-04-05T11:14:38;100783.66;;;18.18;40.29
56514;BME280;62152;52.078;8.414;2023-04-05T11:18:45;100785.16;;;18.15;40.40
56514;BME280;62152;52.078;8.414;2023-04-05T11:22:53;100765.75;;;17.92;41.24
56514;BME280;62152;52.078;8.414;2023-04-05T11:26:55;100764.47;;;17.90;36.41
56514;BME280;62152;52.078;8.414;2023-04-05T11:30:56;100762.91;;;17.89;38.66
56514;BME280;62152;52.078;8.414;2023-04-05T11:35:03;100763.28;;;18.03;37.97
56514;BME280;62152;52.078;8.414;2023-04-05T11:39:28;100760.53;;;18.03;41.06
56514;BME280;62152;52.078;8.414;2023-04-05T11:43:29;100746.97;;;17.94;36.39
56514;BME280;62152;52.078;8.414;2023-04-05T11:47:30;100742.09;;;17.88;35.72
56514;BME280;62152;52.078;8.414;2023-04-05T11:51:32;100739.63;;;17.70;40.02
56514;BME280;62152;52.078;8.414;2023-04-05T11:55:34;100744.09;;;17.75;39.90
56514;BME280;62152;52.078;8.414;2023-04-05T11:59:35;100735.06;;;17.74;40.87
56514;BME280;62152;52.078;8.414;2023-04-05T12:03:36;100736.47;;;17.56;38.10
56514;BME280;62152;52.078;8.414;2023-04-05T12:07:38;100729.56;;;17.46;39.72
56514;BME280;62152;52.078;8.414;2023-04-05T12:11:39;100719.16;;;17.52;39.33
56514;BME280;62152;52.078;8.414;2023-04-05T12:15:40;100722.13;;;17.47;39.64
56514;BME280;62152;52.078;8.414;2023-04-05T12:19:41;100715.72;;;17.43;39.41
56514;BME280;62152;52.078;8.414;2023-04-05T12:23:44;100717.69;;;17.42;36.70
56514;BME280;62152;52.078;8.414;2023-04-05T12:27:46;100709.56;;;17.46;39.02
56514;BME280;62152;52.078;8.414;2023-04-05T12:31:50;100707.28;;;17.48;38.86
56514;BME280;62152;52.078;8.414;2023-04-05T12:35:51;100699.16;;;17.52;39.78
56514;BME280;62152;52.078;8.414;2023-04-05T12:39:54;100703.03;;;17.50;37.36
56514;BME280;62152;52.078;8.414;2023-04-05T12:43:56;100700.38;;;17.54;37.64
56514;BME280;62152;52.078;8.414;2023-04-05T12:47:58;100694.81;;;17.50;38.77
56514;BME280;62152;52.078;8.414;2023-04-05T12:52:00;100685.25;;;17.44;37.96
56514;BME280;62152;52.078;8.414;2023-04-05T12:56:06;100692.06;;;17.50;39.02
56514;BME280;62152;52.078;8.414;2023-04-05T13:00:08;100687.38;;;17.51;37.54
56514;BME280;62152;52.078;8.414;2023-04-05T13:04:09;100675.25;;;17.52;36.30
56514;BME280;62152;52.078;8.414;2023-04-05T13:08:10;100679.16;;;17.51;38.42
56514;BME280;62152;52.078;8.414;2023-04-05T13:12:12;100678.38;;;17.50;37.60
56514;BME280;62152;52.078;8.414;2023-04-05T13:16:13;100672.41;;;17.48;38.38
56514;BME280;62152;52.078;8.414;2023-04-05T13:20:15;100663.38;;;17.48;35.50
56514;BME280;62152;52.078;8.414;2023-04-05T13:24:16;100663.38;;;17.48;36.85
56514;BME280;62152;52.078;8.414;2023-04-05T13:28:18;100649.31;;;17.49;37.86
56514;BME280;62152;52.078;8.414;2023-04-05T13:32:19;100656.56;;;17.42;37.12
56514;BME280;62152;52.078;8.414;2023-04-05T13:36:20;100655.53;;;17.46;38.88
56514;BME280;62152;52.078;8.414;2023-04-05T13:40:20;100653.13;;;17.73;40.30
56514;BME280;62152;52.078;8.414;2023-04-05T13:44:23;100651.63;;;17.91;41.01
56514;BME280;62152;52.078;8.414;2023-04-05T13:48:24;100647.31;;;18.06;40.55
56514;BME280;62152;52.078;8.414;2023-04-05T13:52:24;100640.81;;;18.14;41.05
56514;BME280;62152;52.078;8.414;2023-04-05T13:56:25;100628.69;;;18.15;41.65
56514;BME280;62152;52.078;8.414;2023-04-05T14:00:28;100634.63;;;18.17;41.85
56514;BME280;62152;52.078;8.414;2023-04-05T14:04:29;100629.59;;;18.19;41.75
56514;BME280;62152;52.078;8.414;2023-04-05T14:08:30;100620.34;;;18.12;41.59
56514;BME280;62152;52.078;8.414;2023-04-05T14:12:32;100607.88;;;18.14;41.17
56514;BME280;62152;52.078;8.414;2023-04-05T14:16:35;100615.13;;;18.22;40.44
56514;BME280;62152;52.078;8.414;2023-04-05T14:20:35;100614.50;;;18.29;40.99
56514;BME280;62152;52.078;8.414;2023-04-05T14:24:36;100613.44;;;18.34;41.13
56514;BME280;62152;52.078;8.414;2023-04-05T14:28:37;100617.03;;;18.38;41.02
56514;BME280;62152;52.078;8.414;2023-04-05T14:32:40;100603.78;;;18.40;41.11
56514;BME280;62152;52.078;8.414;2023-04-05T14:36:41;100593.22;;;18.42;41.00
56514;BME280;62152;52.078;8.414;2023-04-05T14:40:42;100598.78;;;18.45;41.08
56514;BME280;62152;52.078;8.414;2023-04-05T14:44:43;100594.06;;;18.46;41.47
56514;BME280;62152;52.078;8.414;2023-04-05T14:48:45;100580.44;;;18.49;41.06
56514;BME280;62152;52.078;8.414;2023-04-05T14:52:46;100583.53;;;18.48;41.35
56514;BME280;62152;52.078;8.414;2023-04-05T14:56:47;100581.81;;;18.40;41.81
56514;BME280;62152;52.078;8.414;2023-04-05T15:00:49;100582.94;;;18.39;40.15
56514;BME280;62152;52.078;8.414;2023-04-05T15:04:51;100570.88;;;18.43;38.90
56514;BME280;62152;52.078;8.414;2023-04-05T15:08:52;100578.75;;;18.45;38.29
56514;BME280;62152;52.078;8.414;2023-04-05T15:12:53;100574.50;;;18.47;39.50
56514;BME280;62152;52.078;8.414;2023-04-05T15:16:54;100576.09;;;18.48;38.94
56514;BME280;62152;52.078;8.414;2023-04-05T15:20:56;100570.66;;;18.52;39.01
56514;BME280;62152;52.078;8.414;2023-04-05T15:24:57;100565.63;;;18.54;39.33
56514;BME280;62152;52.078;8.414;2023-04-05T15:28:58;100556.22;;;18.55;39.29
56514;BME280;62152;52.078;8.414;2023-04-05T15:32:59;100553.91;;;18.57;39.86
56514;BME280;62152;52.078;8.414;2023-04-05T15:37:02;100550.88;;;18.62;39.83
56514;BME280;62152;52.078;8.414;2023-04-05T15:41:02;100556.81;;;18.64;39.97
56514;BME280;62152;52.078;8.414;2023-04-05T15:45:04;100554.97;;;18.68;39.86
56514;BME280;62152;52.078;8.414;2023-04-05T15:49:07;100551.91;;;18.73;40.23
56514;BME280;62152;52.078;8.414;2023-04-05T15:53:09;100541.78;;;18.77;40.61
56514;BME280;62152;52.078;8.414;2023-04-05T15:57:10;100545.75;;;18.80;40.61
56514;BME280;62152;52.078;8.414;2023-04-05T16:01:12;100540.34;;;18.83;40.18
56514;BME280;62152;52.078;8.414;2023-04-05T16:05:13;100537.22;;;18.85;40.25
56514;BME280;62152;52.078;8.414;2023-04-05T16:09:15;100534.13;;;18.86;40.30
56514;BME280;62152;52.078;8.414;2023-04-05T16:13:16;100531.81;;;18.89;40.34
56514;BME280;62152;52.078;8.414;2023-04-05T16:17:17;100531.09;;;18.92;40.31
56514;BME280;62152;52.078;8.414;2023-04-05T16:21:18;100531.50;;;18.94;40.31
56514;BME280;62152;52.078;8.414;2023-04-05T16:25:20;100531.97;;;18.96;39.99
56514;BME280;62152;52.078;8.414;2023-04-05T16:29:22;100529.63;;;18.98;41.03
56514;BME280;62152;52.078;8.414;2023-04-05T16:33:23;100525.72;;;18.99;40.61
56514;BME280;62152;52.078;8.414;2023-04-05T16:37:24;100525.34;;;19.00;40.22
56514;BME280;62152;52.078;8.414;2023-04-05T16:41:26;100524.13;;;18.98;41.33
56514;BME280;62152;52.078;8.414;2023-04-05T16:45:27;100521.00;;;18.99;41.21
56514;BME280;62152;52.078;8.414;2023-04-05T16:49:28;100526.13;;;19.01;41.04
56514;BME280;62152;52.078;8.414;2023-04-05T16:53:29;100526.59;;;19.03;41.84
56514;BME280;62152;52.078;8.414;2023-04-05T16:57:32;100520.63;;;19.01;42.18
56514;BME280;62152;52.078;8.414;2023-04-05T17:01:33;100527.00;;;19.05;42.21
56514;BME280;62152;52.078;8.414;2023-04-05T17:05:34;100523.56;;;19.08;41.82
56514;BME280;62152;52.078;8.414;2023-04-05T17:09:35;100526.72;;;19.10;42.62
56514;BME280;62152;52.078;8.414;2023-04-05T17:13:37;100517.59;;;19.06;43.11
56514;BME280;62152;52.078;8.414;2023-04-05T17:17:39;100524.00;;;18.91;42.94
56514;BME280;62152;52.078;8.414;2023-04-05T17:21:40;100522.97;;;18.79;43.45
56514;BME280;62152;52.078;8.414;2023-04-05T17:25:41;100519.66;;;18.70;43.74
56514;BME280;62152;52.078;8.414;2023-04-05T17:29:43;100521.09;;;18.64;43.73
56514;BME280;62152;52.078;8.414;2023-04-05T17:33:44;100519.78;;;18.58;43.29
56514;BME280;62152;52.078;8.414;2023-04-05T17:37:45;100520.16;;;18.56;43.92
56514;BME280;62152;52.078;8.414;2023-04-05T17:41:46;100512.97;;;18.52;44.09
56514;BME280;62152;52.078;8.414;2023-04-05T17:45:48;100516.47;;;18.49;43.99
56514;BME280;62152;52.078;8.414;2023-04-05T17:49:49;100503.63;;;18.53;44.76
56514;BME280;62152;52.078;8.414;2023-04-05T17:53:50;100511.91;;;18.56;44.25
56514;BME280;62152;52.078;8.414;2023-04-05T17:57:51;100517.41;;;18.56;44.50
56514;BME280;62152;52.078;8.414;2023-04-05T18:01:54;100520.88;;;18.53;44.45
56514;BME280;62152;52.078;8.414;2023-04-05T18:05:55;100514.94;;;18.51;44.22
56514;BME280;62152;52.078;8.414;2023-04-05T18:09:56;100510.59;;;18.50;44.67
56514;BME280;62152;52.078;8.414;2023-04-05T18:13:57;100519.22;;;18.49;44.53
56514;BME280;62152;52.078;8.414;2023-04-05T18:17:59;100522.75;;;18.49;44.83
56514;BME280;62152;52.078;8.414;2023-04-05T18:22:00;100521.16;;;18.48;44.31
56514;BME280;62152;52.078;8.414;2023-04-05T18:26:04;100538.00;;;18.47;44.54
56514;BME280;62152;52.078;8.414;2023-04-05T18:30:07;100536.41;;;18.46;45.14
56514;BME280;62152;52.078;8.414;2023-04-05T18:34:09;100533.22;;;18.44;44.63
56514;BME280;62152;52.078;8.414;2023-04-05T18:38:10;100539.50;;;18.44;45.16
56514;BME280;62152;52.078;8.414;2023-04-05T18:42:11;100550.06;;;18.42;44.79
56514;BME280;62152;52.078;8.414;2023-04-05T18:46:12;100546.53;;;18.42;44.79
56514;BME280;62152;52.078;8.414;2023-04-05T18:50:14;100551.22;;;18.41;45.05
56514;BME280;62152;52.078;8.414;2023-04-05T18:54:15;100555.13;;;18.40;45.07
56514;BME280;62152;52.078;8.414;2023-04-05T18:58:16;100564.53;;;18.39;44.85
56514;BME280;62152;52.078;8.414;2023-04-05T19:02:17;100559.38;;;18.38;44.74
56514;BME280;62152;52.078;8.414;2023-04-05T19:06:19;100567.63;;;18.38;44.75
56514;BME280;62152;52.078;8.414;2023-04-05T19:10:20;100571.16;;;18.38;44.87
56514;BME280;62152;52.078;8.414;2023-04-05T19:14:21;100569.19;;;18.39;45.49
56514;BME280;62152;52.078;8.414;2023-04-05T19:18:22;100573.91;;;18.38;45.13
56514;BME280;62152;52.078;8.414;2023-04-05T19:22:25;100572.31;;;18.37;45.69
56514;BME280;62152;52.078;8.414;2023-04-05T19:26:26;100575.84;;;18.38;45.37
56514;BME280;62152;52.078;8.414;2023-04-05T19:30:27;100575.41;;;18.36;45.05
56514;BME280;62152;52.078;8.414;2023-04-05T19:34:28;100574.69;;;18.39;45.86
56514;BME280;62152;52.078;8.414;2023-04-05T19:38:32;100575.84;;;18.38;45.37
56514;BME280;62152;52.078;8.414;2023-04-05T19:42:33;100571.88;;;18.35;45.40
56514;BME280;62152;52.078;8.414;2023-04-05T19:46:36;100570.28;;;18.34;45.90
56514;BME280;62152;52.078;8.414;2023-04-05T19:50:44;100566.75;;;18.34;46.09
56514;BME280;62152;52.078;8.414;2023-04-05T19:54:48;100571.44;;;18.33;46.04
56514;BME280;62152;52.078;8.414;2023-04-05T19:58:55;100565.16;;;18.33;45.89
56514;BME280;62152;52.078;8.414;2023-04-05T20:02:59;100567.91;;;18.33;46.09
56514;BME280;62152;52.078;8.414;2023-04-05T20:07:00;100571.44;;;18.33;45.78
56514;BME280;62152;52.078;8.414;2023-04-05T20:11:04;100559.22;;;18.30;46.10
56514;BME280;62152;52.078;8.414;2023-04-05T20:15:11;100559.69;;;18.33;45.48
56514;BME280;62152;52.078;8.414;2023-04-05T20:19:12;100555.69;;;18.30;45.22
56514;BME280;62152;52.078;8.414;2023-04-05T20:23:17;100560.38;;;18.29;45.52
56514;BME280;62152;52.078;8.414;2023-04-05T20:27:21;100558.78;;;18.28;45.29
56514;BME280;62152;52.078;8.414;2023-04-05T20:31:23;100552.88;;;18.26;45.84
56514;BME280;62152;52.078;8.414;2023-04-05T20:35:29;100552.88;;;18.26;45.06
56514;BME280;62152;52.078;8.414;2023-04-05T20:39:33;100552.41;;;18.24;45.05
56514;BME280;62152;52.078;8.414;2023-04-05T20:43:36;100546.91;;;18.24;45.35
56514;BME280;62152;52.078;8.414;2023-04-05T20:47:38;100546.91;;;18.24;45.00
56514;BME280;62152;52.078;8.414;2023-04-05T20:51:38;100543.75;;;18.22;45.05
56514;BME280;62152;52.078;8.414;2023-04-05T20:55:39;100547.66;;;18.21;44.88
56514;BME280;62152;52.078;8.414;2023-04-05T20:59:42;100550.41;;;18.21;44.49
56514;BME280;62152;52.078;8.414;2023-04-05T21:03:43;100542.16;;;18.21;45.22
56514;BME280;62152;52.078;8.414;2023-04-05T21:07:43;100543.31;;;18.20;44.34
56514;BME280;62152;52.078;8.414;2023-04-05T21:15:55;100538.63;;;18.21;44.46